createdAt,value
2019-04-19T00:00:22.803Z,45.23
2019-04-19T00:01:06.464Z,45.33
2019-04-19T00:01:54.382Z,45.33
2019-04-19T00:02:33.158Z,45.52
2019-04-19T00:03:06.563Z,45.52
2019-04-19T00:03:46.844Z,45.62
2019-04-19T00:04:27.725Z,46
2019-04-19T00:05:07.902Z,46.19
2019-04-19T00:05:49.611Z,45.52
2019-04-19T00:06:31.548Z,45.72
2019-04-19T00:07:12.993Z,46.19
2019-04-19T00:07:52.480Z,45.62
2019-04-19T00:08:42.542Z,45.72
2019-04-19T00:09:25.930Z,46.1
2019-04-19T00:09:58.769Z,45.62
2019-04-19T00:10:38.284Z,45.62
2019-04-19T00:11:20.978Z,45.62
2019-04-19T00:12:06.313Z,45.72
2019-04-19T00:12:42.325Z,46.29
2019-04-19T00:13:14.173Z,46.19
2019-04-19T00:13:55.661Z,45.52
2019-04-19T00:14:35.799Z,45.43
2019-04-19T00:15:15.868Z,46
2019-04-19T00:15:56.100Z,45.81
2019-04-19T00:16:36.456Z,46
2019-04-19T00:17:20.348Z,45.52
2019-04-19T00:17:59.555Z,46.29
2019-04-19T00:18:43.537Z,46.1
2019-04-19T00:19:32.836Z,46.19
2019-04-19T00:20:25.372Z,45.62
2019-04-19T00:20:55.451Z,45.52
2019-04-19T00:21:32.753Z,45.43
2019-04-19T00:22:18.362Z,45.72
2019-04-19T00:22:52.208Z,45.72
2019-04-19T00:23:26.792Z,45.72
2019-04-19T00:24:01.704Z,45.72
2019-04-19T00:24:41.663Z,45.62
2019-04-19T00:25:21.760Z,45.23
2019-04-19T00:26:01.988Z,45.62
2019-04-19T00:26:42.323Z,45.52
2019-04-19T00:27:24.676Z,46
2019-04-19T00:28:04.263Z,46.29
2019-04-19T00:28:49.271Z,46.39
2019-04-19T00:29:34.498Z,46.17
2019-04-19T00:30:17.784Z,46.1
2019-04-19T00:30:53.683Z,46.17
2019-04-19T00:31:37.096Z,46.39
2019-04-19T00:32:20.251Z,46.29
2019-04-19T00:33:00.090Z,46.29
2019-04-19T00:33:34.368Z,46.17
2019-04-19T00:34:06.673Z,46.29
2019-04-19T00:34:47.034Z,46.36
2019-04-19T00:35:28.464Z,46.29
2019-04-19T00:36:10.328Z,46.26
2019-04-19T00:36:48.772Z,46.19
2019-04-19T00:37:29.018Z,46.1
2019-04-19T00:38:13.432Z,46.39
2019-04-19T00:39:02.229Z,46.29
2019-04-19T00:39:44.775Z,46.19
2019-04-19T00:40:26.201Z,46
2019-04-19T00:41:06.592Z,46.39
2019-04-19T00:41:44.462Z,45.72
2019-04-19T00:42:24.559Z,45.72
2019-04-19T00:43:02.734Z,45.72
2019-04-19T00:43:49.270Z,45.52
2019-04-19T00:44:31.719Z,45.23
2019-04-19T00:45:12.994Z,45.72
2019-04-19T00:45:44.675Z,46.19
2019-04-19T00:46:28.997Z,45.62
2019-04-19T00:47:11.819Z,45.81
2019-04-19T00:47:47.112Z,45.62
2019-04-19T00:48:29.484Z,45.72
2019-04-19T00:49:10.034Z,45.72
2019-04-19T00:49:51.105Z,45.62
2019-04-19T00:50:26.458Z,46.29
2019-04-19T00:51:08.067Z,45.62
2019-04-19T00:51:48.859Z,45.81
2019-04-19T00:52:36.532Z,45.72
2019-04-19T00:53:10.987Z,45.52
2019-04-19T00:53:45.255Z,45.33
2019-04-19T00:54:24.799Z,45.52
2019-04-19T00:55:07.774Z,45.72
2019-04-19T00:55:48.371Z,45.52
2019-04-19T00:56:33.418Z,45.43
2019-04-19T00:57:06.119Z,45.52
2019-04-19T00:57:47.083Z,45.72
2019-04-19T00:58:26.270Z,45.81
2019-04-19T00:59:05.462Z,45.33
2019-04-19T00:59:46.509Z,45.52
2019-04-19T01:00:27.872Z,45.52
2019-04-19T01:01:05.810Z,45.62
2019-04-19T01:01:46.508Z,45.72
2019-04-19T01:02:24.829Z,45.33
2019-04-19T01:03:04.276Z,45.72
2019-04-19T01:03:47.175Z,46.39
2019-04-19T01:04:28.070Z,45.72
2019-04-19T01:05:09.507Z,45.52
2019-04-19T01:05:53.866Z,45.62
2019-04-19T01:06:34.294Z,45.72
2019-04-19T01:07:07.151Z,46.29
2019-04-19T01:07:47.475Z,46
2019-04-19T01:08:27.921Z,46
2019-04-19T01:09:23.585Z,45.62
2019-04-19T01:10:05.925Z,45.62
2019-04-19T01:10:40.166Z,45.33
2019-04-19T01:11:23.265Z,45.43
2019-04-19T01:12:02.980Z,45.52
2019-04-19T01:12:47.678Z,45.33
2019-04-19T01:13:17.642Z,45.72
2019-04-19T01:14:06.043Z,45.33
2019-04-19T01:14:40.228Z,45.33
2019-04-19T01:15:21.879Z,45.72
2019-04-19T01:16:04.981Z,45.62
2019-04-19T01:16:50.610Z,45.81
2019-04-19T01:17:25.267Z,45.62
2019-04-19T01:18:08.988Z,45.43
2019-04-19T01:18:43.906Z,45.81
2019-04-19T01:19:16.557Z,45.72
2019-04-19T01:20:00.180Z,45.81
2019-04-19T01:20:35.275Z,45.43
2019-04-19T01:21:15.372Z,45.33
2019-04-19T01:21:55.427Z,45.43
2019-04-19T01:22:36.182Z,45.9
2019-04-19T01:23:17.903Z,45.43
2019-04-19T01:23:59.012Z,45.52
2019-04-19T01:24:41.293Z,45.33
2019-04-19T01:25:21.162Z,45.33
2019-04-19T01:26:03.029Z,45.52
2019-04-19T01:26:43.580Z,45.33
2019-04-19T01:27:21.091Z,45.62
2019-04-19T01:28:04.995Z,45.52
2019-04-19T01:28:40.044Z,45.62
2019-04-19T01:29:21.259Z,45.43
2019-04-19T01:30:01.355Z,45.43
2019-04-19T01:30:43.177Z,45.62
2019-04-19T01:31:24.311Z,45.52
2019-04-19T01:32:06.537Z,45.33
2019-04-19T01:32:49.404Z,45.33
2019-04-19T01:33:26.129Z,45.62
2019-04-19T01:34:09.359Z,45.43
2019-04-19T01:34:46.592Z,45.72
2019-04-19T01:35:24.500Z,45.52
2019-04-19T01:36:04.227Z,45.43
2019-04-19T01:36:46.609Z,45.52
2019-04-19T01:37:26.921Z,46.29
2019-04-19T01:38:06.937Z,45.72
2019-04-19T01:38:50.427Z,45.9
2019-04-19T01:39:39.167Z,45.43
2019-04-19T01:40:20.908Z,45.43
2019-04-19T01:41:02.846Z,45.43
2019-04-19T01:41:41.350Z,45.52
2019-04-19T01:42:24.446Z,45.62
2019-04-19T01:43:01.502Z,45.52
2019-04-19T01:43:47.074Z,45.23
2019-04-19T01:44:27.495Z,45.52
2019-04-19T01:45:03.931Z,45.43
2019-04-19T01:45:49.015Z,45.23
2019-04-19T01:46:26.287Z,45.62
2019-04-19T01:47:04.168Z,45.33
2019-04-19T01:47:46.196Z,45.9
2019-04-19T01:48:28.003Z,45.23
2019-04-19T01:49:03.603Z,45.52
2019-04-19T01:49:47.181Z,45.72
2019-04-19T01:50:20.366Z,45.23
2019-04-19T01:51:08.478Z,45.52
2019-04-19T01:51:55.788Z,44.76
2019-04-19T01:52:40.580Z,45.33
2019-04-19T01:53:13.384Z,45.33
2019-04-19T01:53:49.747Z,45.72
2019-04-19T01:54:29.385Z,45.81
2019-04-19T01:55:06.633Z,45.52
2019-04-19T01:55:38.916Z,45.62
2019-04-19T01:56:18.761Z,45.33
2019-04-19T01:57:00.617Z,45.14
2019-04-19T01:57:36.696Z,45.52
2019-04-19T01:58:19.596Z,46.1
2019-04-19T01:59:00.512Z,46.19
2019-04-19T01:59:44.851Z,46.17
2019-04-19T02:00:24.130Z,46.29
2019-04-19T02:01:01.501Z,46.17
2019-04-19T02:01:39.593Z,45.33
2019-04-19T02:02:22.816Z,45.33
2019-04-19T02:03:02.950Z,46.29
2019-04-19T02:03:44.936Z,46.36
2019-04-19T02:04:25.141Z,46.39
2019-04-19T02:05:06.760Z,46.55
2019-04-19T02:05:47.278Z,46.36
2019-04-19T02:06:28.764Z,46.26
2019-04-19T02:07:04.989Z,45.98
2019-04-19T02:07:42.889Z,46.55
2019-04-19T02:08:24.538Z,46.08
2019-04-19T02:09:04.895Z,46.46
2019-04-19T02:09:58.789Z,46.26
2019-04-19T02:10:40.558Z,46.46
2019-04-19T02:11:11.596Z,46.94
2019-04-19T02:11:53.918Z,46.84
2019-04-19T02:12:36.130Z,46.94
2019-04-19T02:13:16.700Z,46.91
2019-04-19T02:13:57.703Z,46.72
2019-04-19T02:14:37.144Z,47.2
2019-04-19T02:15:11.639Z,47.11
2019-04-19T02:15:51.248Z,47.78
2019-04-19T02:16:29.840Z,47.97
2019-04-19T02:17:11.326Z,47.3
2019-04-19T02:17:51.293Z,47.87
2019-04-19T02:18:32.183Z,47.39
2019-04-19T02:19:14.015Z,47.78
2019-04-19T02:19:56.981Z,47.68
2019-04-19T02:20:36.308Z,47.68
2019-04-19T02:21:12.829Z,48.35
2019-04-19T02:21:52.535Z,48.25
2019-04-19T02:22:34.892Z,47.87
2019-04-19T02:23:14.432Z,48.07
2019-04-19T02:23:57.311Z,47.58
2019-04-19T02:24:36.901Z,48.07
2019-04-19T02:25:20.921Z,48.16
2019-04-19T02:25:59.050Z,47.97
2019-04-19T02:26:38.289Z,48.07
2019-04-19T02:27:18.643Z,48.25
2019-04-19T02:27:58.422Z,48.07
2019-04-19T02:28:40.799Z,48.35
2019-04-19T02:29:21.459Z,48.16
2019-04-19T02:30:07.917Z,47.87
2019-04-19T02:30:53.362Z,47.87
2019-04-19T02:31:43.178Z,48.64
2019-04-19T02:32:57.669Z,48.54
2019-04-19T02:33:46.810Z,48.64
2019-04-19T02:34:39.055Z,48.54
2019-04-19T02:35:05.853Z,48.25
2019-04-19T02:35:50.574Z,47.68
2019-04-19T02:36:35.311Z,47.78
2019-04-19T02:37:50.918Z,48.16
2019-04-19T02:38:28.579Z,48.07
2019-04-19T02:39:48.911Z,47.87
2019-04-19T02:41:17.678Z,48.16
2019-04-19T02:42:15.752Z,47.87
2019-04-19T02:42:44.137Z,47.85
2019-04-19T02:43:14.034Z,48.61
2019-04-19T02:43:57.676Z,48.52
2019-04-19T02:44:35.569Z,48.64
2019-04-19T02:45:27.807Z,48.8
2019-04-19T02:46:07.598Z,48.42
2019-04-19T02:46:42.357Z,48.8
2019-04-19T02:47:29.632Z,48.8
2019-04-19T02:48:44.640Z,49.09
2019-04-19T02:49:27.590Z,49.48
2019-04-19T02:49:55.773Z,49.57
2019-04-19T02:51:00.477Z,49.57
2019-04-19T02:51:57.387Z,49.57
2019-04-19T02:52:38.790Z,49.66
2019-04-19T02:54:02.099Z,50.15
2019-04-19T02:54:40.151Z,50.34
2019-04-19T02:56:10.738Z,50.62
2019-04-19T02:56:51.623Z,50.62
2019-04-19T02:57:58.683Z,50.52
2019-04-19T02:58:39.466Z,50.5
2019-04-19T02:59:29.246Z,50.72
2019-04-19T03:00:12.361Z,50.79
2019-04-19T03:01:02.162Z,51.17
2019-04-19T03:01:26.455Z,50.89
2019-04-19T03:02:13.741Z,50.79
2019-04-19T03:03:30.667Z,51.27
2019-04-19T03:04:23.831Z,51.93
2019-04-19T03:05:26.995Z,52.13
2019-04-19T03:05:58.516Z,52.13
2019-04-19T03:06:30.435Z,52.13
2019-04-19T03:07:04.648Z,52.13
2019-04-19T03:07:45.567Z,52.13
2019-04-19T03:08:23.138Z,51.93
2019-04-19T03:09:03.542Z,52.42
2019-04-19T03:09:45.621Z,52.7
2019-04-19T03:10:26.469Z,53.08
2019-04-19T03:11:11.498Z,53.18
2019-04-19T03:11:55.899Z,53.75
2019-04-19T03:12:41.316Z,53.82
2019-04-19T03:13:21.399Z,53.75
2019-04-19T03:14:02.867Z,53.82
2019-04-19T03:14:45.045Z,54.59
2019-04-19T03:15:18.348Z,54.3
2019-04-19T03:16:02.287Z,54.88
2019-04-19T03:16:43.326Z,54.59
2019-04-19T03:17:23.061Z,55.16
2019-04-19T03:18:13.241Z,55.07
2019-04-19T03:18:42.096Z,55.54
2019-04-19T03:19:20.782Z,55.16
2019-04-19T03:20:05.026Z,55.16
2019-04-19T03:20:42.326Z,55.26
2019-04-19T03:21:30.633Z,55.35
2019-04-19T03:22:04.640Z,55.26
2019-04-19T03:22:49.253Z,55.93
2019-04-19T03:23:25.672Z,55.83
2019-04-19T03:24:04.666Z,55.83
2019-04-19T03:24:51.956Z,56.18
2019-04-19T03:25:27.449Z,55.71
2019-04-19T03:26:07.052Z,55.9
2019-04-19T03:26:45.600Z,56.38
2019-04-19T03:27:20.798Z,56.38
2019-04-19T03:28:06.932Z,56.28
2019-04-19T03:28:43.294Z,56.67
2019-04-19T03:29:23.423Z,56.57
2019-04-19T03:30:10.416Z,56.47
2019-04-19T03:32:34.579Z,56.67
2019-04-19T03:34:30.087Z,57.04
2019-04-19T03:35:00.588Z,56.85
2019-04-19T03:35:43.163Z,56.67
2019-04-19T03:36:30.883Z,56.67
2019-04-19T03:36:54.575Z,57.04
2019-04-19T03:37:37.854Z,57.62
2019-04-19T03:38:15.490Z,57.62
2019-04-19T03:39:03.706Z,57.14
2019-04-19T03:39:43.820Z,57.43
2019-04-19T03:40:34.368Z,57.62
2019-04-19T03:41:02.436Z,57.62
2019-04-19T03:42:00.859Z,57.62
2019-04-19T03:42:27.054Z,58
2019-04-19T03:43:00.301Z,58.19
2019-04-19T03:43:40.937Z,58
2019-04-19T03:44:20.934Z,57.87
2019-04-19T03:45:06.703Z,58.26
2019-04-19T03:45:49.855Z,58.83
2019-04-19T03:46:18.412Z,59.12
2019-04-19T03:47:14.850Z,59.02
2019-04-19T03:47:49.929Z,59.5
2019-04-19T03:48:26.890Z,59.59
2019-04-19T03:49:05.408Z,59.22
2019-04-19T03:49:44.663Z,58.93
2019-04-19T03:50:26.044Z,59.12
2019-04-19T03:51:56.599Z,59.02
2019-04-19T03:52:31.190Z,59.5
2019-04-19T03:53:05.620Z,59.69
2019-04-19T03:53:54.025Z,59.59
2019-04-19T03:54:28.132Z,59.78
2019-04-19T03:55:13.016Z,59.5
2019-04-19T03:56:01.454Z,59.59
2019-04-19T03:56:31.850Z,59.5
2019-04-19T03:57:09.971Z,59.69
2019-04-19T03:57:42.335Z,60.17
2019-04-19T03:58:16.862Z,60.17
2019-04-19T03:58:55.830Z,60.27
2019-04-19T03:59:35.298Z,60.27
2019-04-19T04:00:15.509Z,60.07
2019-04-19T04:00:56.075Z,60.17
2019-04-19T04:01:41.205Z,60.07
2019-04-19T04:02:24.378Z,60.17
2019-04-19T04:03:00.892Z,60.33
2019-04-19T04:03:42.666Z,60.52
2019-04-19T04:04:22.136Z,60.52
2019-04-19T04:05:02.317Z,60.42
2019-04-19T04:05:43.961Z,60.52
2019-04-19T04:06:25.679Z,60.71
2019-04-19T04:07:06.749Z,61.1
2019-04-19T04:07:41.179Z,61.19
2019-04-19T04:08:23.008Z,61.1
2019-04-19T04:09:03.586Z,61.1
2019-04-19T04:09:47.262Z,61.1
2019-04-19T04:10:27.311Z,61.38
2019-04-19T04:11:07.953Z,61.76
2019-04-19T04:11:52.623Z,62.05
2019-04-19T04:12:34.367Z,61.38
2019-04-19T04:13:17.410Z,61.1
2019-04-19T04:13:59.703Z,61.47
2019-04-19T04:14:31.706Z,61.29
2019-04-19T04:15:13.805Z,61.57
2019-04-19T04:15:56.589Z,61.86
2019-04-19T04:16:32.444Z,62.05
2019-04-19T04:17:05.857Z,62.34
2019-04-19T04:17:45.957Z,62.62
2019-04-19T04:18:26.360Z,62.71
2019-04-19T04:19:06.759Z,62.43
2019-04-19T04:19:48.302Z,62.71
2019-04-19T04:20:28.448Z,62.71
2019-04-19T04:21:07.970Z,63.1
2019-04-19T04:21:51.237Z,63.2
2019-04-19T04:22:33.404Z,63.48
2019-04-19T04:23:14.160Z,63.67
2019-04-19T04:23:59.839Z,63.2
2019-04-19T04:24:36.992Z,63.26
2019-04-19T04:25:17.758Z,63.39
2019-04-19T04:25:59.021Z,63.1
2019-04-19T04:26:42.748Z,63.86
2019-04-19T04:27:25.836Z,63.86
2019-04-19T05:07:03.183Z,58.58
2019-04-19T05:07:38.904Z,58.48
2019-04-19T05:08:24.032Z,57.75
2019-04-19T05:08:58.289Z,57.65
2019-04-19T05:09:44.462Z,57.26
2019-04-19T05:10:18.477Z,56.79
2019-04-19T05:11:05.461Z,56.98
2019-04-19T05:11:41.833Z,56.43
2019-04-19T05:12:26.821Z,56.24
2019-04-19T05:13:16.139Z,56.05
2019-04-19T05:13:49.843Z,55.67
2019-04-19T05:14:27.299Z,55.38
2019-04-19T05:14:58.838Z,54.74
2019-04-19T05:15:47.741Z,54.45
2019-04-19T05:16:32.211Z,53.78
2019-04-19T05:17:18.040Z,53.69
2019-04-19T05:17:51.145Z,53.62
2019-04-19T05:18:29.221Z,52.95
2019-04-19T05:19:09.431Z,52.47
2019-04-19T05:19:49.861Z,51.92
2019-04-19T05:20:27.126Z,51.82
2019-04-19T05:21:12.168Z,51.34
2019-04-19T05:21:50.771Z,50.58
2019-04-19T05:22:26.338Z,50.41
2019-04-19T05:23:08.052Z,49.74
2019-04-19T05:23:58.842Z,49.36
2019-04-19T05:24:30.794Z,48.71
2019-04-19T05:25:18.945Z,48.71
2019-04-19T05:25:55.346Z,48.13
2019-04-19T05:26:38.482Z,48.07
2019-04-19T05:27:20.203Z,47.87
2019-04-19T05:27:55.010Z,47.1
2019-04-19T05:28:36.745Z,46.43
2019-04-19T05:29:10.361Z,46.36
2019-04-19T05:29:43.275Z,46.36
2019-04-19T05:30:19.664Z,45.68
2019-04-19T05:31:03.890Z,45.5
2019-04-19T05:31:45.732Z,45.71
2019-04-19T05:32:26.915Z,45.32
2019-04-19T05:33:09.402Z,44.65
2019-04-19T05:33:51.283Z,44.29
2019-04-19T05:34:41.229Z,43.33
2019-04-19T05:35:15.311Z,43.23
2019-04-19T05:36:02.678Z,42.94
2019-04-19T05:36:42.695Z,42.68
2019-04-19T05:37:17.173Z,42.58
2019-04-19T05:37:58.242Z,42.77
2019-04-19T05:38:47.439Z,42.39
2019-04-19T05:39:24.839Z,42.1
2019-04-19T05:40:04.650Z,41.55
2019-04-19T05:40:38.707Z,41.16
2019-04-19T05:41:16.613Z,41.35
2019-04-19T05:41:59.563Z,40.78
2019-04-19T05:42:44.504Z,41.16
2019-04-19T05:43:47.212Z,41.16
2019-04-19T05:44:12.114Z,40.22
2019-04-19T05:44:54.764Z,39.74
2019-04-19T05:46:15.121Z,40.22
2019-04-19T05:46:48.836Z,39.09
2019-04-19T05:47:25.758Z,38.41
2019-04-19T05:47:59.261Z,38.79
2019-04-19T05:48:42.033Z,38.12
2019-04-19T05:49:26.152Z,38.12
2019-04-19T05:50:16.703Z,38.04
2019-04-19T05:50:52.021Z,37.56
2019-04-19T05:51:38.458Z,37.08
2019-04-19T05:52:12.480Z,36.79
2019-04-19T05:52:46.968Z,36.43
2019-04-19T05:53:25.039Z,36.81
2019-04-19T05:53:59.056Z,36.81
2019-04-19T05:54:36.458Z,36.71
2019-04-19T05:55:16.757Z,36.04
2019-04-19T05:55:56.421Z,36.13
2019-04-19T05:56:43.430Z,35.36
2019-04-19T05:57:35.716Z,35.77
2019-04-19T05:58:11.265Z,35.58
2019-04-19T05:58:51.833Z,35.38
2019-04-19T05:59:31.515Z,34.9
2019-04-19T06:00:14.785Z,35.21
2019-04-19T06:00:54.696Z,34.53
2019-04-19T06:01:40.998Z,34.34
2019-04-19T06:02:15.430Z,33.95
2019-04-19T06:02:56.650Z,33.78
2019-04-19T06:03:40.490Z,33.2
2019-04-19T06:04:20.816Z,33.29
2019-04-19T06:05:09.943Z,33.2
2019-04-19T06:05:48.345Z,32.92
2019-04-19T06:06:25.789Z,32.82
2019-04-19T06:07:01.413Z,32.82
2019-04-19T06:07:38.933Z,32.15
2019-04-19T06:08:15.173Z,31.88
2019-04-19T06:08:47.580Z,31.3
2019-04-19T06:09:28.537Z,31.3
2019-04-19T06:10:10.573Z,31.3
2019-04-19T06:10:53.343Z,31.1
2019-04-19T06:11:33.079Z,30.83
2019-04-19T06:12:16.267Z,30.93
2019-04-19T06:12:56.204Z,31.01
2019-04-19T06:13:29.880Z,30.72
2019-04-19T06:14:31.577Z,30.83
2019-04-19T06:15:13.138Z,31.12
2019-04-19T06:15:53.764Z,31.22
2019-04-19T06:16:30.189Z,30.93
2019-04-19T06:17:05.069Z,30.63
2019-04-19T06:17:50.647Z,30.85
2019-04-19T06:18:25.211Z,30.36
2019-04-19T06:19:13.273Z,30.36
2019-04-19T06:19:46.898Z,30.27
2019-04-19T06:20:29.961Z,30.17
2019-04-19T06:21:15.118Z,30.07
2019-04-19T06:21:49.339Z,30.07
2019-04-19T06:22:32.566Z,29.7
2019-04-19T06:23:12.006Z,29.6
2019-04-19T06:23:57.915Z,29.5
2019-04-19T06:24:36.176Z,29.41
2019-04-19T06:25:17.578Z,29.12
2019-04-19T06:26:11.056Z,29.12
2019-04-19T06:26:53.248Z,29.02
2019-04-19T06:27:24.879Z,29.32
2019-04-19T06:28:15.281Z,29.12
2019-04-19T06:28:43.470Z,28.92
2019-04-19T06:29:14.484Z,28.83
2019-04-19T06:30:05.638Z,28.83
2019-04-19T06:30:40.803Z,29.13
2019-04-19T06:31:26.500Z,29.13
2019-04-19T06:32:01.619Z,29.43
2019-04-19T06:32:44.588Z,29.23
2019-04-19T06:33:21.320Z,29.13
2019-04-19T06:34:03.397Z,29.52
2019-04-19T06:34:39.852Z,29.61
2019-04-19T06:35:16.071Z,29.81
2019-04-19T06:35:51.851Z,29.99
2019-04-19T06:36:25.201Z,30.08
2019-04-19T06:37:12.960Z,29.9
2019-04-19T06:37:46.008Z,29.9
2019-04-19T06:38:26.751Z,29.7
2019-04-19T06:39:07.840Z,30.38
2019-04-19T06:39:50.702Z,30.57
2019-04-19T06:40:31.010Z,30.86
2019-04-19T06:41:13.487Z,30.86
2019-04-19T06:41:55.668Z,30.57
2019-04-19T06:42:35.525Z,30.57
2019-04-19T06:43:15.507Z,30.66
2019-04-19T06:44:01.248Z,30.47
2019-04-19T06:44:50.192Z,30.86
2019-04-19T06:45:26.568Z,30.66
2019-04-19T06:46:05.610Z,31.34
2019-04-19T06:46:42.083Z,31.25
2019-04-19T06:47:21.686Z,31.34
2019-04-19T06:47:58.805Z,30.98
2019-04-19T06:48:35.322Z,30.58
2019-04-19T06:49:18.388Z,30.2
2019-04-19T06:49:55.390Z,30.29
2019-04-19T06:50:38.225Z,29.61
2019-04-19T06:51:24.238Z,29.13
2019-04-19T06:52:03.730Z,29.13
2019-04-19T06:52:37.748Z,29.03
2019-04-19T06:53:16.765Z,29.13
2019-04-19T06:54:01.684Z,29.33
2019-04-19T06:54:40.079Z,29.71
2019-04-19T06:55:24.679Z,29.52
2019-04-19T06:56:05.733Z,29.43
2019-04-19T06:56:41.265Z,29.15
2019-04-19T06:57:25.511Z,28.76
2019-04-19T06:58:07.293Z,28.96
2019-04-19T06:58:47.027Z,29.15
2019-04-19T06:59:32.216Z,28.86
2019-04-19T07:00:12.787Z,28.94
2019-04-19T07:00:54.299Z,28.94
2019-04-19T07:01:30.056Z,29.33
2019-04-19T07:02:02.501Z,29.41
2019-04-19T07:02:41.713Z,29.41
2019-04-19T07:03:22.151Z,29.8
2019-04-19T07:04:02.590Z,29.99
2019-04-19T07:04:51.140Z,30.36
2019-04-19T07:05:36.873Z,31.02
2019-04-19T07:06:19.390Z,31.88
2019-04-19T07:07:05.479Z,32.34
2019-04-19T07:07:40.625Z,33.2
2019-04-19T07:08:42.551Z,33.58
2019-04-19T07:09:50.066Z,34.44
2019-04-19T07:10:36.697Z,35.1
2019-04-19T07:11:49.863Z,35.94
2019-04-19T07:12:30.093Z,36.89
2019-04-19T07:13:04.014Z,37.18
2019-04-19T07:13:40.312Z,37.83
2019-04-19T07:14:14.470Z,38.12
2019-04-19T07:15:06.362Z,38.2
2019-04-19T07:15:55.004Z,39.06
2019-04-19T07:16:34.676Z,39.62
2019-04-19T07:17:10.704Z,39.93
2019-04-19T07:17:47.048Z,40.12
2019-04-19T07:18:28.504Z,39.18
2019-04-19T07:19:11.590Z,38.7
2019-04-19T07:19:49.695Z,38.99
2019-04-19T07:20:26.252Z,38.41
2019-04-19T07:21:11.473Z,38.91
2019-04-19T07:21:51.665Z,37.95
2019-04-19T07:22:34.584Z,37.66
2019-04-19T07:23:09.691Z,37.46
2019-04-19T07:23:53.046Z,37.08
2019-04-19T07:25:24.791Z,36.61
2019-04-19T07:25:59.154Z,36.89
2019-04-19T07:26:37.373Z,36.11
2019-04-19T07:27:10.663Z,36.6
2019-04-19T07:27:49.618Z,37.08
2019-04-19T07:28:23.662Z,36.99
2019-04-19T07:28:59.958Z,36.99
2019-04-19T07:29:40.406Z,37.08
2019-04-19T07:30:20.309Z,36.19
2019-04-19T07:31:04.786Z,36
2019-04-19T07:31:41.453Z,36.58
2019-04-19T07:32:28.854Z,37.08
2019-04-19T07:33:09.260Z,36.11
2019-04-19T07:33:53.595Z,36.04
2019-04-19T07:34:36.942Z,35.46
2019-04-19T07:35:13.088Z,35.46
2019-04-19T07:36:00.341Z,34.69
2019-04-19T07:36:49.425Z,34.21
2019-04-19T07:37:18.290Z,34.13
2019-04-19T07:38:10.664Z,33.94
2019-04-19T07:38:45.520Z,33.92
2019-04-19T07:39:23.698Z,33.73
2019-04-19T07:40:05.572Z,34.3
2019-04-19T07:41:00.005Z,34.69
2019-04-19T07:41:21.311Z,34.98
2019-04-19T07:42:10.575Z,34.98
2019-04-19T07:42:43.529Z,35.08
2019-04-19T07:43:23.447Z,34.78
2019-04-19T07:43:58.355Z,34.88
2019-04-19T07:44:37.180Z,35.08
2019-04-19T07:45:12.654Z,35.17
2019-04-19T07:46:07.446Z,34.4
2019-04-19T07:46:49.865Z,34.88
2019-04-19T07:47:22.206Z,34.3
2019-04-19T07:47:58.355Z,34.09
2019-04-19T07:48:31.114Z,34.38
2019-04-19T07:49:12.763Z,35.24
2019-04-19T07:50:01.223Z,35.33
2019-04-19T07:50:42.258Z,35.71
2019-04-19T07:51:20.540Z,36
2019-04-19T07:52:02.300Z,35.52
2019-04-19T07:52:40.923Z,35.25
2019-04-19T07:53:19.633Z,34.96
2019-04-19T07:53:56.813Z,34.67
2019-04-19T07:54:37.406Z,34.46
2019-04-19T07:55:17.298Z,34.94
2019-04-19T07:56:04.027Z,35.25
2019-04-19T07:56:48.280Z,35.16
2019-04-19T07:57:50.611Z,34.96
2019-04-19T07:59:38.372Z,34.48
2019-04-19T08:00:28.409Z,35.06
2019-04-19T08:01:07.606Z,34.86
2019-04-19T08:01:52.333Z,34.96
2019-04-19T08:02:26.142Z,35.35
2019-04-19T08:03:57.189Z,34.59
2019-04-19T08:05:10.624Z,34.4
2019-04-19T08:06:35.544Z,34.3
2019-04-19T08:07:15.275Z,34.32
2019-04-19T08:07:59.333Z,33.94
2019-04-19T08:09:10.809Z,34.22
2019-04-19T08:09:48.129Z,34.11
2019-04-19T08:10:31.952Z,33.92
2019-04-19T08:11:16.042Z,34.01
2019-04-19T08:13:18.935Z,35.33
2019-04-19T08:13:57.702Z,35.33
2019-04-19T08:15:18.134Z,35.24
2019-04-19T08:16:52.918Z,35.54
2019-04-19T08:17:35.011Z,35.16
2019-04-19T08:17:52.735Z,35.16
2019-04-19T08:27:41.133Z,33.82
2019-04-19T08:28:27.828Z,34.01
2019-04-19T08:29:12.875Z,33.82
2019-04-19T08:29:48.909Z,33.82
2019-04-19T08:30:25.353Z,33.61
2019-04-19T08:31:02.439Z,34.09
2019-04-19T08:31:41.072Z,34.38
2019-04-19T08:32:21.593Z,34.38
2019-04-19T08:33:01.931Z,34.29
2019-04-19T08:33:43.075Z,34
2019-04-19T08:34:24.652Z,34.38
2019-04-19T08:35:07.816Z,34.19
2019-04-19T08:35:49.114Z,34.01
2019-04-19T08:36:31.041Z,33.71
2019-04-19T08:37:10.034Z,33.82
2019-04-19T08:37:48.452Z,33.92
2019-04-19T08:38:28.848Z,33.73
2019-04-19T08:39:19.972Z,33.25
2019-04-19T08:39:59.972Z,33.15
2019-04-19T08:40:42.217Z,32.76
2019-04-19T08:41:16.972Z,33.05
2019-04-19T08:42:09.227Z,33.05
2019-04-19T08:42:46.782Z,32.57
2019-04-19T08:43:24.879Z,32.57
2019-04-19T08:44:04.594Z,32.86
2019-04-19T08:44:40.258Z,33.05
2019-04-19T08:45:14.866Z,33.26
2019-04-19T08:45:51.347Z,32.97
2019-04-19T08:46:32.587Z,33.26
2019-04-19T08:47:22.822Z,33.36
2019-04-19T08:48:02.420Z,32.41
2019-04-19T08:48:39.062Z,32.41
2019-04-19T08:49:21.192Z,32.6
2019-04-19T08:49:58.970Z,31.85
2019-04-19T08:50:40.655Z,31.65
2019-04-19T08:51:18.317Z,31.27
2019-04-19T08:51:55.856Z,30.88
2019-04-19T08:52:38.953Z,30.79
2019-04-19T08:53:31.674Z,31.07
2019-04-19T08:54:21.157Z,31.46
2019-04-19T08:54:57.406Z,31.56
2019-04-19T08:55:34.647Z,31.75
2019-04-19T08:56:11.102Z,31.46
2019-04-19T08:56:48.179Z,31.37
2019-04-19T08:57:23.950Z,30.98
2019-04-19T08:58:06.699Z,31.07
2019-04-19T08:58:54.227Z,30.88
2019-04-19T08:59:43.710Z,30.88
2019-04-19T09:00:32.509Z,30.98
2019-04-19T09:01:03.296Z,31.37
2019-04-19T09:01:44.308Z,31.45
2019-04-19T09:02:20.721Z,31.63
2019-04-19T09:02:57.691Z,31.62
2019-04-19T09:03:45.044Z,32.1
2019-04-19T09:04:23.251Z,32.6
2019-04-19T09:05:03.848Z,32.51
2019-04-19T09:05:38.764Z,31.83
2019-04-19T09:07:50.898Z,32.41
2019-04-19T09:08:27.779Z,32.52
2019-04-19T09:09:00.515Z,32.52
2019-04-19T09:09:50.339Z,32.14
2019-04-19T09:11:04.974Z,31.75
2019-04-19T09:11:47.827Z,31.85
2019-04-19T09:12:25.237Z,31.75
2019-04-19T09:13:18.015Z,31.75
2019-04-19T09:13:49.167Z,31.65
2019-04-19T09:14:35.105Z,32.81
2019-04-19T09:15:12.415Z,32.14
2019-04-19T09:15:49.991Z,32.15
2019-04-19T09:16:29.788Z,30.99
2019-04-19T09:17:22.648Z,30.99
2019-04-19T09:18:24.713Z,31.28
2019-04-19T09:19:24.264Z,31.28
2019-04-19T09:20:32.554Z,31.28
2019-04-19T09:21:13.828Z,31.28
2019-04-19T09:21:48.349Z,31.28
2019-04-19T09:22:35.363Z,31.4
2019-04-19T09:23:16.467Z,30.91
2019-04-19T09:23:48.281Z,30.91
2019-04-19T09:24:30.472Z,30.62
2019-04-19T09:25:09.864Z,30.72
2019-04-19T09:25:52.287Z,30.44
2019-04-19T09:26:35.075Z,30.44
2019-04-19T09:27:28.906Z,30.35
2019-04-19T09:28:04.322Z,30.15
2019-04-19T09:28:44.376Z,30.44
2019-04-19T09:29:28.848Z,30.35
2019-04-19T09:30:40.408Z,29.77
2019-04-19T09:31:21.271Z,29.28
2019-04-19T09:31:55.891Z,29.09
2019-04-19T09:32:31.271Z,29.38
2019-04-19T09:33:12.908Z,29.47
2019-04-19T09:33:49.928Z,29.77
2019-04-19T09:34:29.608Z,29.77
2019-04-19T09:35:09.976Z,29.67
2019-04-19T09:35:56.560Z,28.8
2019-04-19T09:36:34.474Z,28.89
2019-04-19T09:37:16.700Z,29.47
2019-04-19T09:38:00.935Z,29.85
2019-04-19T09:38:46.784Z,29.96
2019-04-19T09:39:24.565Z,29.19
2019-04-19T09:39:59.445Z,29.19
2019-04-19T09:40:41.278Z,29.38
2019-04-19T09:41:22.098Z,29.09
2019-04-19T09:41:58.991Z,29.57
2019-04-19T09:42:42.019Z,29.47
2019-04-19T09:43:28.152Z,29.1
2019-04-19T09:44:03.373Z,29.3
2019-04-19T09:44:41.433Z,29.3
2019-04-19T09:45:15.239Z,29.12
2019-04-19T09:45:55.604Z,28.34
2019-04-19T09:46:36.123Z,28.05
2019-04-19T09:47:16.488Z,28.44
2019-04-19T09:47:56.951Z,28.91
2019-04-19T09:48:55.220Z,28.81
2019-04-19T09:49:28.230Z,28.91
2019-04-19T09:50:09.699Z,28.41
2019-04-19T09:50:54.804Z,28.99
2019-04-19T09:51:38.103Z,28.89
2019-04-19T09:52:26.227Z,29.01
2019-04-19T09:53:06.211Z,28.43
2019-04-19T09:53:46.034Z,28.33
2019-04-19T09:54:25.254Z,28.62
2019-04-19T09:55:03.099Z,28.25
2019-04-19T09:55:44.039Z,28.05